createdAt,value
2022-11-20T00:00:18.258Z,100534.94
2022-11-20T00:01:26.097Z,100534.05
2022-11-20T00:02:28.833Z,100543.56
2022-11-20T00:03:30.738Z,100551.27
2022-11-20T00:04:32.717Z,100550.42
2022-11-20T00:05:34.677Z,100562.56
2022-11-20T00:06:36.691Z,100565.13
2022-11-20T00:07:38.619Z,100573.73
2022-11-20T00:08:41.041Z,100570.30
2022-11-20T00:09:42.910Z,100575.44
2022-11-20T00:10:44.856Z,100575.40
2022-11-20T00:11:46.706Z,100577.95
2022-11-20T00:12:48.588Z,100574.50
2022-11-20T00:13:53.280Z,100575.35
2022-11-20T00:14:55.178Z,100578.81
2022-11-20T00:16:01.350Z,100577.92
2022-11-20T00:17:03.285Z,100590.89
2022-11-20T00:18:05.152Z,100589.19
2022-11-20T00:19:07.174Z,100594.36
2022-11-20T00:20:11.347Z,100594.34
2022-11-20T00:21:25.435Z,100599.54
2022-11-20T00:22:27.395Z,100597.76
2022-11-20T00:23:30.027Z,100599.48
2022-11-20T00:24:31.966Z,100602.12
2022-11-20T00:25:36.779Z,100597.77
2022-11-20T00:26:38.900Z,100590.84
2022-11-20T00:27:40.963Z,100582.98
2022-11-20T00:28:44.474Z,100591.62
2022-11-20T00:29:46.456Z,100592.45
2022-11-20T00:30:48.973Z,100596.78
2022-11-20T00:31:50.856Z,100593.25
2022-11-20T00:32:52.771Z,100594.13
2022-11-20T00:33:56.228Z,100594.13
2022-11-20T00:34:58.135Z,100590.72
2022-11-20T00:36:02.748Z,100591.53
2022-11-20T00:37:04.978Z,100590.73
2022-11-20T00:38:07.176Z,100593.31
2022-11-20T00:39:09.043Z,100597.61
2022-11-20T00:40:12.547Z,100603.80
2022-11-20T00:41:16.360Z,100606.36
2022-11-20T00:42:18.549Z,100610.67
2022-11-20T00:43:20.420Z,100615.82
2022-11-20T00:44:22.975Z,100612.30
2022-11-20T00:45:24.861Z,100615.67
2022-11-20T00:46:28.140Z,100612.17
2022-11-20T00:47:30.030Z,100612.27
2022-11-20T00:48:32.191Z,100614.00
2022-11-20T00:49:34.300Z,100620.91
2022-11-20T00:50:36.286Z,100619.10
2022-11-20T00:51:38.256Z,100607.09
2022-11-20T00:52:40.403Z,100616.58
2022-11-20T00:53:43.146Z,100609.59
2022-11-20T00:54:45.129Z,100613.82
2022-11-20T00:56:03.032Z,100619.94
2022-11-20T00:57:04.937Z,100619.00
2022-11-20T00:58:10.304Z,100620.73
2022-11-20T00:59:10.853Z,100614.78
2022-11-20T01:00:14.878Z,100613.88
2022-11-20T01:01:20.086Z,100612.20
2022-11-20T01:02:22.207Z,100616.50
2022-11-20T01:03:27.074Z,100619.10
2022-11-20T01:04:27.890Z,100617.39
2022-11-20T01:05:31.628Z,100605.33
2022-11-20T01:06:36.629Z,100607.05
2022-11-20T01:07:39.857Z,100596.52
2022-11-20T01:08:42.437Z,100594.00
2022-11-20T01:09:44.335Z,100598.21
2022-11-20T01:10:46.366Z,100601.72
2022-11-20T01:11:48.916Z,100599.22
2022-11-20T01:12:50.777Z,100596.69
2022-11-20T01:13:54.979Z,100596.69
2022-11-20T01:14:57.796Z,100591.53
2022-11-20T01:16:05.222Z,100598.44
2022-11-20T01:17:07.110Z,100590.66
2022-11-20T01:18:08.978Z,100593.27
2022-11-20T01:19:17.553Z,100598.55
2022-11-20T01:20:17.533Z,100602.80
2022-11-20T01:21:22.507Z,100605.36
2022-11-20T01:22:24.438Z,100592.34
2022-11-20T01:23:26.329Z,100598.42
2022-11-20T01:24:28.167Z,100603.48
2022-11-20T01:25:30.158Z,100599.16
2022-11-20T01:26:34.734Z,100602.63
2022-11-20T01:27:36.652Z,100604.38
2022-11-20T01:28:41.142Z,100600.91
2022-11-20T01:29:43.030Z,100596.55
2022-11-20T01:30:45.013Z,100595.67
2022-11-20T01:31:47.160Z,100597.35
2022-11-20T01:32:49.001Z,100604.28
2022-11-20T01:33:53.365Z,100601.81
2022-11-20T01:34:55.282Z,100598.34
2022-11-20T01:36:06.109Z,100595.67
2022-11-20T01:37:08.032Z,100592.22
2022-11-20T01:38:09.895Z,100593.95
2022-11-20T01:39:15.180Z,100602.56
2022-11-20T01:40:17.295Z,100605.84
2022-11-20T01:41:19.265Z,100593.00
2022-11-20T01:42:22.449Z,100597.27
2022-11-20T01:43:25.086Z,100604.19
2022-11-20T01:44:53.970Z,100604.19
2022-11-20T01:46:17.136Z,100601.53
2022-11-20T01:47:41.488Z,100601.25
2022-11-20T01:48:48.194Z,100603.75
2022-11-20T01:51:19.697Z,100600.66
2022-11-20T01:52:28.669Z,100544.00
2022-11-20T01:53:34.352Z,100605.40
2022-11-20T01:54:42.785Z,100610.65
2022-11-20T01:56:59.446Z,100621.16
2022-11-20T01:58:03.520Z,100619.25
2022-11-20T01:59:08.827Z,100620.09
2022-11-20T02:00:15.146Z,100625.43
2022-11-20T02:01:17.782Z,100624.73
2022-11-20T02:02:21.196Z,100633.44
2022-11-20T02:03:24.011Z,100615.39
2022-11-20T02:04:26.170Z,100631.80
2022-11-20T02:05:37.642Z,100624.89
2022-11-20T02:06:46.752Z,100619.78
2022-11-20T02:07:48.651Z,100617.20
2022-11-20T02:08:52.339Z,100620.66
2022-11-20T02:09:58.548Z,100606.87
2022-11-20T02:10:58.647Z,100618.09
2022-11-20T02:12:01.206Z,100618.97
2022-11-20T02:13:04.032Z,100626.75
2022-11-20T02:14:07.058Z,100634.52
2022-11-20T02:15:10.496Z,100640.58
2022-11-20T02:16:26.517Z,100642.33
2022-11-20T02:17:28.745Z,100644.86
2022-11-20T02:18:31.182Z,100638.91
2022-11-20T02:19:33.246Z,100631.12
2022-11-20T02:20:35.742Z,100619.94
2022-11-20T02:21:44.365Z,100620.78
2022-11-20T02:24:07.335Z,100606.24
2022-11-20T02:25:10.659Z,100615.67
2022-11-20T02:26:14.922Z,100615.64
2022-11-20T02:27:17.220Z,100615.72
2022-11-20T02:28:19.901Z,100629.49
2022-11-20T02:29:28.269Z,100638.09
2022-11-20T02:30:34.085Z,100645.03
2022-11-20T02:31:42.326Z,100645.08
2022-11-20T02:32:44.532Z,100648.55
2022-11-20T02:33:46.615Z,100646.84
2022-11-20T02:34:48.897Z,100648.56
2022-11-20T02:35:50.770Z,100642.58
2022-11-20T02:36:53.873Z,100639.14
2022-11-20T02:37:58.403Z,100650.39
2022-11-20T02:39:00.522Z,100647.81
2022-11-20T02:40:03.161Z,100648.67
2022-11-20T02:41:05.036Z,100649.48
2022-11-20T02:42:07.001Z,100645.15
2022-11-20T02:43:09.889Z,100652.88
2022-11-20T02:44:12.376Z,100652.91
2022-11-20T02:45:14.433Z,100642.45
2022-11-20T02:46:16.818Z,100641.63
2022-11-20T02:47:18.691Z,100634.66
2022-11-20T02:48:20.554Z,100634.63
2022-11-20T02:49:22.857Z,100641.61
2022-11-20T02:50:25.218Z,100638.15
2022-11-20T02:51:27.199Z,100624.34
2022-11-20T02:52:29.091Z,100627.80
2022-11-20T02:53:31.144Z,100626.98
2022-11-20T02:54:32.997Z,100633.87
2022-11-20T02:55:36.114Z,100637.36
2022-11-20T02:56:39.733Z,100635.64
2022-11-20T02:57:41.625Z,100633.95
2022-11-20T02:58:43.481Z,100627.91
2022-11-20T02:59:45.367Z,100633.11
2022-11-20T03:00:47.331Z,100626.20
2022-11-20T03:01:49.219Z,100628.80
2022-11-20T03:02:51.097Z,100627.08
2022-11-20T03:03:55.431Z,100627.95
2022-11-20T03:04:57.479Z,100631.36
2022-11-20T03:06:00.157Z,100635.67
2022-11-20T03:07:03.190Z,100639.98
2022-11-20T03:08:05.643Z,100640.88
2022-11-20T03:09:07.492Z,100639.14
2022-11-20T03:10:09.783Z,100646.13
2022-11-20T03:11:11.761Z,100645.22
2022-11-20T03:12:14.855Z,100647.81
2022-11-20T03:13:16.731Z,100646.06
2022-11-20T03:14:18.830Z,100652.94
2022-11-20T03:15:20.705Z,100652.06
2022-11-20T03:16:23.673Z,100646.00
2022-11-20T03:17:25.626Z,100650.37
2022-11-20T03:18:28.969Z,100645.95
2022-11-20T03:19:32.969Z,100654.59
2022-11-20T03:20:35.061Z,100650.28
2022-11-20T03:21:36.998Z,100651.09
2022-11-20T03:22:38.880Z,100651.09
2022-11-20T03:23:40.801Z,100642.50
2022-11-20T03:24:42.710Z,100646.82
2022-11-20T03:25:44.572Z,100647.65
2022-11-20T03:26:46.647Z,100651.09
2022-11-20T03:27:48.709Z,100665.72
2022-11-20T03:28:53.476Z,100670.83
2022-11-20T03:29:55.379Z,100684.68
2022-11-20T03:30:58.729Z,100685.57
2022-11-20T03:32:00.914Z,100676.47
2022-11-20T03:33:02.994Z,100678.14
2022-11-20T03:34:05.053Z,100679.00
2022-11-20T03:35:08.284Z,100678.26
2022-11-20T03:36:13.921Z,100685.26
2022-11-20T03:37:16.006Z,100688.73
2022-11-20T03:38:18.159Z,100678.41
2022-11-20T03:39:20.387Z,100678.53
2022-11-20T03:40:22.807Z,100682.08
2022-11-20T03:41:27.678Z,100677.77
2022-11-20T03:42:29.648Z,100666.55
2022-11-20T03:43:32.959Z,100673.53
2022-11-20T03:44:34.833Z,100682.11
2022-11-20T03:45:36.703Z,100675.25
2022-11-20T03:46:38.668Z,100688.86
2022-11-20T03:47:40.516Z,100679.52
2022-11-20T03:48:45.376Z,100671.75
2022-11-20T03:49:48.323Z,100679.55
2022-11-20T03:50:50.304Z,100675.25
2022-11-20T03:51:52.211Z,100676.09
2022-11-20T03:52:54.072Z,100673.53
2022-11-20T03:53:58.549Z,100676.96
2022-11-20T03:55:00.476Z,100670.06
2022-11-20T03:56:03.641Z,100676.09
2022-11-20T03:57:05.716Z,100673.50
2022-11-20T03:58:08.870Z,100672.58
2022-11-20T03:59:11.369Z,100665.69
2022-11-20T04:00:15.983Z,100666.57
2022-11-20T04:01:20.433Z,100660.52
2022-11-20T04:02:24.733Z,100657.93
2022-11-20T04:03:26.639Z,100661.39
2022-11-20T04:04:28.486Z,100670.03
2022-11-20T04:05:30.348Z,100662.31
2022-11-20T04:06:37.693Z,100655.45
2022-11-20T04:07:39.749Z,100655.51
2022-11-20T04:08:45.915Z,100660.70
2022-11-20T04:09:48.275Z,100655.50
2022-11-20T04:10:50.381Z,100665.85
2022-11-20T04:11:52.236Z,100670.13
2022-11-20T04:12:54.102Z,100664.00
2022-11-20T04:13:59.278Z,100661.45
2022-11-20T04:15:01.294Z,100670.13
2022-11-20T04:16:04.529Z,100668.35
2022-11-20T04:17:06.399Z,100662.30
2022-11-20T04:18:08.377Z,100658.83
2022-11-20T04:19:15.466Z,100655.36
2022-11-20T04:20:18.387Z,100658.80
2022-11-20T04:21:21.396Z,100663.17
2022-11-20T04:22:23.596Z,100661.45
2022-11-20T04:23:28.894Z,100660.56
2022-11-20T04:24:31.145Z,100659.67
2022-11-20T04:25:33.055Z,100663.97
2022-11-20T04:26:35.320Z,100661.36
2022-11-20T04:27:37.207Z,100664.00
2022-11-20T04:28:39.990Z,100668.32
2022-11-20T04:29:41.963Z,100664.86
2022-11-20T04:30:44.143Z,100662.16
2022-11-20T04:31:46.006Z,100668.96
2022-11-20T04:32:47.875Z,100671.58
2022-11-20T04:33:50.262Z,100663.53
2022-11-20T04:34:52.197Z,100666.00
2022-11-20T04:35:54.193Z,100664.30
2022-11-20T04:36:56.152Z,100666.09
2022-11-20T04:37:58.015Z,100663.56
2022-11-20T04:39:07.003Z,100663.57
2022-11-20T04:40:10.402Z,100658.45
2022-11-20T04:41:18.060Z,100653.29
2022-11-20T04:42:19.994Z,100656.73
2022-11-20T04:43:21.855Z,100648.98
2022-11-20T04:44:23.749Z,100649.05
2022-11-20T04:45:25.720Z,100649.91
2022-11-20T04:46:28.405Z,100646.54
2022-11-20T04:47:30.801Z,100639.70
2022-11-20T04:48:32.655Z,100637.96
2022-11-20T04:49:34.581Z,100638.02
2022-11-20T04:50:40.385Z,100626.80
2022-11-20T04:51:43.200Z,100631.20
2022-11-20T04:52:45.070Z,100629.49
2022-11-20T04:53:49.223Z,100623.45
2022-11-20T04:54:51.511Z,100624.30
2022-11-20T04:55:57.150Z,100625.09
2022-11-20T04:56:59.255Z,100617.31
2022-11-20T04:58:01.151Z,100625.86
2022-11-20T04:59:03.433Z,100622.51
2022-11-20T05:00:08.894Z,100614.78
2022-11-20T05:01:13.972Z,100607.92
2022-11-20T05:02:16.217Z,100607.92
2022-11-20T05:03:18.095Z,100618.36
2022-11-20T05:04:20.058Z,100618.36
2022-11-20T05:05:23.085Z,100623.51
2022-11-20T05:06:25.538Z,100615.78
2022-11-20T05:07:27.455Z,100620.11
2022-11-20T05:08:32.788Z,100616.62
2022-11-20T05:09:34.701Z,100612.27
2022-11-20T05:10:36.660Z,100610.58
2022-11-20T05:11:41.379Z,100602.80
2022-11-20T05:12:43.274Z,100609.76
2022-11-20T05:13:45.474Z,100604.58
2022-11-20T05:14:47.559Z,100608.02
2022-11-20T05:15:49.746Z,100604.64
2022-11-20T05:16:55.268Z,100603.75
2022-11-20T05:17:57.205Z,100601.12
2022-11-20T05:18:59.062Z,100597.55
2022-11-20T05:20:00.926Z,100595.84
2022-11-20T05:21:05.798Z,100598.36
2022-11-20T05:22:07.695Z,100599.20
2022-11-20T05:23:09.580Z,100600.11
2022-11-20T05:24:11.586Z,100614.81
2022-11-20T05:25:13.725Z,100611.30
2022-11-20T05:27:29.058Z,100609.81
2022-11-20T05:28:33.582Z,100612.35
2022-11-20T05:29:35.483Z,100615.82
2022-11-20T05:30:37.470Z,100608.05
2022-11-20T05:31:41.005Z,100606.17
2022-11-20T05:32:42.937Z,100602.80
2022-11-20T05:33:45.620Z,100592.41
2022-11-20T05:34:47.511Z,100589.78
2022-11-20T05:35:49.395Z,100585.45
2022-11-20T05:36:51.427Z,100580.33
2022-11-20T05:37:53.295Z,100579.48
2022-11-20T05:39:01.003Z,100576.09
2022-11-20T05:39:59.911Z,100574.36
2022-11-20T05:41:08.135Z,100573.58
2022-11-20T05:42:10.041Z,100569.25
2022-11-20T05:43:11.905Z,100571.79
2022-11-20T05:44:16.114Z,100574.41
2022-11-20T05:45:18.195Z,100575.30
2022-11-20T05:46:27.663Z,100573.56
2022-11-20T05:47:27.736Z,100576.19
2022-11-20T05:48:32.859Z,100573.63
2022-11-20T05:49:34.862Z,100573.64
2022-11-20T05:50:36.826Z,100575.45
2022-11-20T05:51:38.685Z,100578.92
2022-11-20T05:52:41.439Z,100578.95
2022-11-20T05:53:48.239Z,100579.83
2022-11-20T05:54:48.372Z,100567.75
2022-11-20T05:56:06.150Z,100572.87
2022-11-20T05:57:08.096Z,100577.17
2022-11-20T05:58:09.998Z,100588.39
2022-11-20T05:59:11.842Z,100594.50
2022-11-20T06:00:16.185Z,100582.44
2022-11-20T06:01:24.115Z,100582.45
2022-11-20T06:02:26.176Z,100580.75
2022-11-20T06:03:28.256Z,100585.02
2022-11-20T06:04:30.218Z,100586.71
2022-11-20T06:05:33.843Z,100596.25
2022-11-20T06:06:35.968Z,100593.72
2022-11-20T06:07:37.920Z,100588.54
2022-11-20T06:08:40.605Z,100596.33
2022-11-20T06:09:42.473Z,100588.59
2022-11-20T06:10:44.989Z,100591.19
2022-11-20T06:11:46.991Z,100581.67
2022-11-20T06:12:48.862Z,100579.07
2022-11-20T06:13:51.069Z,100581.69
2022-11-20T06:14:53.002Z,100586.87
2022-11-20T06:15:54.874Z,100591.23
2022-11-20T06:16:56.826Z,100593.87
2022-11-20T06:17:58.697Z,100589.56
2022-11-20T06:19:00.678Z,100590.39
2022-11-20T06:20:03.161Z,100586.95
2022-11-20T06:21:11.458Z,100584.38
2022-11-20T06:22:16.211Z,100592.19
2022-11-20T06:23:18.109Z,100589.61
2022-11-20T06:24:20.091Z,100589.59
2022-11-20T06:25:21.959Z,100593.06
2022-11-20T06:26:27.042Z,100593.08
2022-11-20T06:27:29.594Z,100593.08
2022-11-20T06:28:32.176Z,100587.03
2022-11-20T06:29:34.360Z,100585.31
2022-11-20T06:30:37.550Z,100580.13
2022-11-20T06:31:39.411Z,100579.23
2022-11-20T06:32:41.277Z,100585.33
2022-11-20T06:33:44.101Z,100582.72
2022-11-20T06:34:46.078Z,100587.91
2022-11-20T06:35:47.928Z,100597.45
2022-11-20T06:36:49.882Z,100601.78
2022-11-20T06:37:51.749Z,100598.31
2022-11-20T06:38:53.786Z,100593.11
2022-11-20T06:39:55.641Z,100600.05
2022-11-20T06:40:57.600Z,100598.33
2022-11-20T06:41:59.588Z,100597.50
2022-11-20T06:43:01.466Z,100599.20
2022-11-20T06:44:05.228Z,100587.11
2022-11-20T06:45:08.871Z,100590.55
2022-11-20T06:46:13.505Z,100586.22
2022-11-20T06:47:15.386Z,100584.50
2022-11-20T06:48:17.281Z,100585.40
2022-11-20T06:49:19.738Z,100575.00
2022-11-20T06:50:21.984Z,100581.06
2022-11-20T06:51:24.136Z,100575.84
2022-11-20T06:52:25.979Z,100571.54
2022-11-20T06:53:27.935Z,100571.53
2022-11-20T06:54:29.841Z,100570.67
2022-11-20T06:55:32.126Z,100568.05
2022-11-20T06:56:34.110Z,100568.95
2022-11-20T06:57:35.975Z,100575.86
2022-11-20T06:58:39.164Z,100571.54
2022-11-20T06:59:41.351Z,100559.41
2022-11-20T07:00:43.860Z,100568.05
2022-11-20T07:01:45.990Z,100571.55
2022-11-20T07:02:47.857Z,100571.53
2022-11-20T07:03:54.021Z,100574.12
2022-11-20T07:04:53.749Z,100575.01
2022-11-20T07:05:56.441Z,100576.73
2022-11-20T07:06:58.444Z,100572.42
2022-11-20T07:08:00.586Z,100570.67
2022-11-20T07:09:03.101Z,100578.47
2022-11-20T07:10:07.218Z,100576.73
2022-11-20T07:11:12.353Z,100568.95
2022-11-20T07:12:14.335Z,100573.30
2022-11-20T07:13:16.607Z,100570.70
2022-11-20T07:14:18.496Z,100571.55
2022-11-20T07:15:23.978Z,100573.30
2022-11-20T07:16:25.993Z,100567.23
2022-11-20T07:17:27.840Z,100567.23
2022-11-20T07:18:29.803Z,100563.78
2022-11-20T07:19:31.708Z,100553.39
2022-11-20T07:20:33.763Z,100556.84
2022-11-20T07:21:35.645Z,100556.85
2022-11-20T07:22:38.028Z,100555.98
2022-11-20T07:23:39.894Z,100555.99
2022-11-20T07:24:45.811Z,100558.58
2022-11-20T07:25:45.710Z,100549.05
2022-11-20T07:26:47.874Z,100555.13
2022-11-20T07:27:50.646Z,100548.21
2022-11-20T07:28:52.548Z,100548.21
2022-11-20T07:29:54.486Z,100544.72
2022-11-20T07:30:56.546Z,100548.20
2022-11-20T07:31:58.412Z,100549.94
2022-11-20T07:33:00.393Z,100554.25
2022-11-20T07:34:02.467Z,100502.28
2022-11-20T07:35:06.489Z,100558.58
2022-11-20T07:36:10.419Z,100561.18
2022-11-20T07:37:15.039Z,100550.80
2022-11-20T07:38:17.010Z,100560.30
2022-11-20T07:39:19.069Z,100559.44
2022-11-20T07:40:21.241Z,100556.84
2022-11-20T07:41:23.332Z,100566.37
2022-11-20T07:42:25.225Z,100561.17
2022-11-20T07:43:27.907Z,100562.92
2022-11-20T07:44:29.780Z,100559.45
2022-11-20T07:45:31.710Z,100560.30
2022-11-20T07:46:33.771Z,100562.03
2022-11-20T07:47:36.820Z,100562.05
2022-11-20T07:48:38.699Z,100558.60
2022-11-20T07:49:40.620Z,100556.87
2022-11-20T07:50:45.682Z,100549.93
2022-11-20T07:51:53.058Z,100543.84
2022-11-20T07:53:06.327Z,100542.14
2022-11-20T07:54:08.225Z,100539.54
2022-11-20T07:55:11.180Z,100536.94
2022-11-20T07:56:13.432Z,100544.73
2022-11-20T07:57:15.298Z,100549.94
2022-11-20T07:58:17.151Z,100562.03
2022-11-20T07:59:19.134Z,100562.92
2022-11-20T08:00:21.300Z,100560.30
2022-11-20T08:01:23.275Z,100556.84
2022-11-20T08:02:25.908Z,100556.84
2022-11-20T08:03:28.181Z,100558.55
2022-11-20T08:04:30.076Z,100562.88
2022-11-20T08:05:32.504Z,100554.23
2022-11-20T08:06:35.090Z,100552.49
2022-11-20T08:07:38.651Z,100546.44
2022-11-20T08:08:43.078Z,100556.84
2022-11-20T08:09:45.709Z,100546.42
2022-11-20T08:10:47.699Z,100550.73
2022-11-20T08:11:49.562Z,100540.34
2022-11-20T08:12:52.737Z,100539.48
2022-11-20T08:13:54.654Z,100544.69
2022-11-20T08:14:58.030Z,100536.03
2022-11-20T08:15:59.911Z,100541.19
2022-11-20T08:17:01.778Z,100531.67
2022-11-20T08:18:30.150Z,100531.67
2022-11-20T08:19:10.497Z,100539.47
2022-11-20T08:20:12.873Z,100529.95
2022-11-20T08:21:14.778Z,100519.54
2022-11-20T08:22:16.665Z,100515.23
2022-11-20T08:23:18.741Z,100525.63
2022-11-20T08:24:20.590Z,100520.38
2022-11-20T08:25:22.473Z,100519.53
2022-11-20T08:26:25.158Z,100520.39
2022-11-20T08:27:27.140Z,100510.88
2022-11-20T08:28:29.019Z,100513.48
2022-11-20T08:29:30.914Z,100516.08
2022-11-20T08:30:34.087Z,100508.28
2022-11-20T08:31:36.221Z,100504.83
2022-11-20T08:32:38.128Z,100510.88
2022-11-20T08:33:40.017Z,100511.73
2022-11-20T08:34:41.996Z,100513.42
2022-11-20T08:35:44.033Z,100509.97
2022-11-20T08:36:46.017Z,100511.70
2022-11-20T08:37:48.890Z,100513.46
2022-11-20T08:38:53.026Z,100506.51
2022-11-20T08:39:54.997Z,100508.26
2022-11-20T08:42:10.926Z,100501.19
2022-11-20T08:43:12.864Z,100510.78
2022-11-20T08:44:14.960Z,100504.72
2022-11-20T08:45:19.274Z,100501.27
2022-11-20T08:46:21.971Z,100506.42
2022-11-20T08:47:23.963Z,100504.71
2022-11-20T08:48:25.870Z,100514.21
2022-11-20T08:49:27.861Z,100510.78
2022-11-20T08:50:29.958Z,100506.42
2022-11-20T08:51:32.089Z,100513.37
2022-11-20T08:52:38.466Z,100508.16
2022-11-20T08:53:38.898Z,100509.89
2022-11-20T08:54:40.785Z,100508.97
2022-11-20T08:55:42.839Z,100511.59
2022-11-20T08:56:45.027Z,100512.44
2022-11-20T08:57:50.797Z,100519.38
2022-11-20T09:00:11.062Z,100515.01
2022-11-20T09:00:59.496Z,100515.96
2022-11-20T09:02:01.660Z,100513.30
2022-11-20T09:03:05.680Z,100508.95
2022-11-20T09:04:07.581Z,100507.20
2022-11-20T09:05:09.424Z,100508.12
2022-11-20T09:06:11.585Z,100508.96
2022-11-20T09:07:13.578Z,100504.61
2022-11-20T09:08:15.754Z,100517.63
2022-11-20T09:09:18.226Z,100503.75
2022-11-20T09:10:24.718Z,100503.73
2022-11-20T09:11:24.312Z,100500.22
2022-11-20T09:12:26.375Z,100462.27
2022-11-20T09:13:29.282Z,100492.52
2022-11-20T09:14:31.230Z,100485.58
2022-11-20T09:15:35.663Z,100481.29
2022-11-20T09:16:37.683Z,100464.73
2022-11-20T09:17:39.649Z,100468.22
2022-11-20T09:18:41.523Z,100459.52
2022-11-20T09:19:43.574Z,100461.31
2022-11-20T09:20:46.431Z,100452.66
2022-11-20T09:21:49.255Z,100460.53
2022-11-20T09:22:51.538Z,100460.53
2022-11-20T09:23:53.406Z,100472.62
2022-11-20T09:24:55.289Z,100479.53
2022-11-20T09:25:57.198Z,100474.34
2022-11-20T09:27:04.908Z,100479.53
2022-11-20T09:28:06.944Z,100485.60
2022-11-20T09:29:09.098Z,100485.60
2022-11-20T09:31:27.534Z,100482.95
2022-11-20T09:32:29.817Z,100480.39
2022-11-20T09:33:34.719Z,100479.58
2022-11-20T09:34:36.611Z,100477.86
2022-11-20T09:35:38.491Z,100475.20
2022-11-20T09:36:40.458Z,100472.59
2022-11-20T09:37:42.303Z,100468.29
2022-11-20T09:38:45.368Z,100466.51
2022-11-20T09:39:47.388Z,100458.70
2022-11-20T09:41:09.022Z,100455.28
2022-11-20T09:42:39.126Z,100445.75
2022-11-20T09:44:02.728Z,100446.56
2022-11-20T09:45:29.889Z,100443.06
2022-11-20T09:46:48.105Z,100439.55
2022-11-20T09:48:13.842Z,100442.19
2022-11-20T09:49:46.546Z,100442.16
2022-11-20T09:51:00.922Z,100444.73
2022-11-20T09:52:10.222Z,100447.39
2022-11-20T09:53:15.983Z,100440.47
2022-11-20T09:54:21.155Z,100443.91
2022-11-20T09:55:23.470Z,100437.88
2022-11-20T09:56:26.254Z,100441.30
2022-11-20T09:58:57.831Z,100431.70
2022-11-20T10:00:02.346Z,100427.37
2022-11-20T10:01:08.081Z,100420.52
2022-11-20T10:02:26.251Z,100423.05
2022-11-20T10:03:44.006Z,100425.66
2022-11-20T10:05:09.780Z,100428.25
2022-11-20T10:06:15.541Z,100419.64
2022-11-20T10:07:36.514Z,100422.18
2022-11-20T10:08:44.391Z,100411.82
2022-11-20T10:09:53.402Z,100416.06
2022-11-20T10:11:16.100Z,100420.33
2022-11-20T10:12:33.582Z,100414.27
2022-11-20T10:14:00.428Z,100408.20
2022-11-20T10:15:15.050Z,100406.50
2022-11-20T10:16:38.019Z,100403.14
2022-11-20T10:17:57.102Z,100406.50
2022-11-20T10:19:15.006Z,100403.88
2022-11-20T10:20:30.036Z,100399.53
2022-11-20T10:21:50.977Z,100399.53
2022-11-20T10:23:02.675Z,100393.50
2022-11-20T10:24:25.316Z,100392.61
2022-11-20T10:25:31.075Z,100392.56
2022-11-20T10:26:42.974Z,100390.80
2022-11-20T10:27:53.556Z,100393.39
2022-11-20T10:29:13.851Z,100390.00
2022-11-20T10:30:18.174Z,100390.81
2022-11-20T10:31:36.150Z,100389.98
2022-11-20T10:32:44.736Z,100392.56
2022-11-20T10:34:10.972Z,100389.98
2022-11-20T10:35:02.352Z,100388.18
2022-11-20T10:36:23.392Z,100385.55
2022-11-20T10:37:27.207Z,100393.36
2022-11-20T10:38:36.029Z,100391.62
2022-11-20T10:39:47.531Z,100392.47
2022-11-20T10:40:53.530Z,100387.27
2022-11-20T10:41:56.935Z,100380.29
2022-11-20T10:43:17.585Z,100371.73
2022-11-20T10:44:29.121Z,100371.73
2022-11-20T10:45:51.359Z,100373.44
2022-11-20T10:46:53.424Z,100373.49
2022-11-20T10:48:00.722Z,100370.88
2022-11-20T10:49:06.375Z,100370.88
2022-11-20T10:50:12.743Z,100370.02
2022-11-20T10:51:35.131Z,100370.97
2022-11-20T10:53:05.268Z,100374.45
2022-11-20T10:54:20.047Z,100381.33
2022-11-20T10:55:46.916Z,100391.83
2022-11-20T10:56:52.310Z,100387.48
2022-11-20T10:58:00.736Z,100377.94
2022-11-20T10:59:18.181Z,100379.68
2022-11-20T11:00:21.703Z,100377.94
2022-11-20T11:01:23.807Z,100384.90
2022-11-20T11:03:42.233Z,100383.23
2022-11-20T11:04:47.826Z,100385.04
2022-11-20T11:05:56.281Z,100371.09
2022-11-20T11:07:25.009Z,100379.73
2022-11-20T11:08:30.741Z,100370.27
2022-11-20T11:09:36.505Z,100362.42
2022-11-20T11:10:51.575Z,100365.91
2022-11-20T11:11:53.494Z,100360.70
2022-11-20T11:12:55.380Z,100354.61
2022-11-20T11:14:15.518Z,100355.42
2022-11-20T11:15:40.571Z,100357.22
2022-11-20T11:16:54.902Z,100359.83
2022-11-20T11:17:57.246Z,100363.22
2022-11-20T11:19:15.729Z,100369.34
2022-11-20T11:20:23.700Z,100351.28
2022-11-20T11:21:26.801Z,100369.37
2022-11-20T11:22:31.708Z,100369.44
2022-11-20T11:23:39.893Z,100368.53
2022-11-20T11:24:45.556Z,100363.38
2022-11-20T11:25:51.421Z,100370.39
2022-11-20T11:27:03.171Z,100365.08
2022-11-20T11:28:06.786Z,100372.86
2022-11-20T11:29:15.313Z,100365.95
2022-11-20T11:30:21.392Z,100368.52
2022-11-20T11:31:30.827Z,100366.83
2022-11-20T11:32:32.764Z,100369.34
2022-11-20T11:33:34.753Z,100360.78
2022-11-20T11:34:37.705Z,100347.72
2022-11-20T11:35:49.737Z,100351.23
2022-11-20T11:36:53.588Z,100339.09
2022-11-20T11:39:21.341Z,100331.23
2022-11-20T11:40:25.664Z,100330.49
2022-11-20T11:41:34.572Z,100332.13
2022-11-20T11:42:43.286Z,100334.72
2022-11-20T11:43:57.934Z,100327.80
2022-11-20T11:45:00.929Z,100327.74
2022-11-20T11:46:06.489Z,100327.70
2022-11-20T11:47:20.861Z,100328.70
2022-11-20T11:48:23.136Z,100329.56
2022-11-20T11:49:25.660Z,100329.56
2022-11-20T11:50:29.408Z,100327.81
2022-11-20T11:52:07.537Z,100331.22
2022-11-20T11:53:16.406Z,100337.34
2022-11-20T11:54:38.962Z,100354.64
2022-11-20T11:55:56.480Z,100357.27
2022-11-20T11:57:05.132Z,100349.47
2022-11-20T11:58:19.985Z,100356.45
2022-11-20T11:59:28.915Z,100353.86
2022-11-20T12:00:33.028Z,100343.44
2022-11-20T12:01:50.080Z,100340.89
2022-11-20T12:03:02.113Z,100333.95
2022-11-20T12:04:27.220Z,100340.12
2022-11-20T12:05:47.479Z,100325.30
2022-11-20T12:06:56.983Z,100324.45
2022-11-20T12:08:17.597Z,100322.75
2022-11-20T12:09:23.785Z,100317.48
2022-11-20T12:11:56.301Z,100313.94
2022-11-20T12:13:04.660Z,100321.04
2022-11-20T12:14:19.862Z,100314.92
2022-11-20T12:15:25.713Z,100307.16
2022-11-20T12:16:30.385Z,100305.47
2022-11-20T12:17:33.005Z,100303.66
2022-11-20T12:18:34.970Z,100289.00
2022-11-20T12:19:36.879Z,100313.17
2022-11-20T12:20:44.377Z,100315.80
2022-11-20T12:22:00.037Z,100305.39
2022-11-20T12:23:12.511Z,100317.55
2022-11-20T12:24:45.007Z,100315.06
2022-11-20T12:25:50.824Z,100327.14
2022-11-20T12:27:27.218Z,100331.48
2022-11-20T12:28:38.749Z,100331.50
2022-11-20T12:29:50.495Z,100330.61
2022-11-20T12:32:33.607Z,100322.72
2022-11-20T12:33:54.661Z,100330.67
2022-11-20T12:35:19.481Z,100330.70
2022-11-20T12:36:36.966Z,100333.30